sensor_id;sensor_type;location;lat;lon;timestamp;temperature;humidity
3492;DHT22;1760;52.480;13.422;2024-03-23T00:54:29;9.30;99.90
3492;DHT22;1760;52.480;13.422;2024-03-23T00:56:56;9.30;99.90
3492;DHT22;1760;52.480;13.422;2024-03-23T00:59:22;9.30;99.90
3492;DHT22;1760;52.480;13.422;2024-03-23T01:01:52;9.30;99.90
3492;DHT22;1760;52.480;13.422;2024-03-23T01:04:18;9.30;99.90
3492;DHT22;1760;52.480;13.422;2024-03-23T01:06:45;9.40;99.90
3492;DHT22;1760;52.480;13.422;2024-03-23T01:09:11;9.40;99.90
3492;DHT22;1760;52.480;13.422;2024-03-23T01:11:40;9.30;99.90
3492;DHT22;1760;52.480;13.422;2024-03-23T01:14:06;9.30;99.90
3492;DHT22;1760;52.480;13.422;2024-03-23T01:16:33;9.30;99.90
3492;DHT22;1760;52.480;13.422;2024-03-23T01:18:59;9.40;99.90
3492;DHT22;1760;52.480;13.422;2024-03-23T01:21:26;9.40;99.90
3492;DHT22;1760;52.480;13.422;2024-03-23T01:23:55;9.40;99.90
3492;DHT22;1760;52.480;13.422;2024-03-23T01:26:21;9.40;99.90
3492;DHT22;1760;52.480;13.422;2024-03-23T01:28:49;9.40;99.90
3492;DHT22;1760;52.480;13.422;2024-03-23T01:31:16;9.40;99.90
3492;DHT22;1760;52.480;13.422;2024-03-23T01:33:42;9.50;99.90
3492;DHT22;1760;52.480;13.422;2024-03-23T01:36:09;9.50;99.90
3492;DHT22;1760;52.480;13.422;2024-03-23T01:38:34;9.50;99.90
3492;DHT22;1760;52.480;13.422;2024-03-23T01:41:02;9.50;99.90
3492;DHT22;1760;52.480;13.422;2024-03-23T01:43:28;9.50;99.90
3492;DHT22;1760;52.480;13.422;2024-03-23T01:45:56;9.60;99.90
3492;DHT22;1760;52.480;13.422;2024-03-23T01:48:22;9.50;99.90
3492;DHT22;1760;52.480;13.422;2024-03-23T01:50:50;9.50;99.90
3492;DHT22;1760;52.480;13.422;2024-03-23T01:53:16;9.50;99.90
3492;DHT22;1760;52.480;13.422;2024-03-23T01:55:45;9.50;99.90
3492;DHT22;1760;52.480;13.422;2024-03-23T01:58:11;9.50;99.90
3492;DHT22;1760;52.480;13.422;2024-03-23T02:00:37;9.50;99.90
3492;DHT22;1760;52.480;13.422;2024-03-23T02:03:22;9.50;99.90
3492;DHT22;1760;52.480;13.422;2024-03-23T02:05:49;9.50;99.90
3492;DHT22;1760;52.480;13.422;2024-03-23T02:08:15;9.50;99.90
3492;DHT22;1760;52.480;13.422;2024-03-23T02:10:42;9.50;99.90
3492;DHT22;1760;52.480;13.422;2024-03-23T02:13:09;9.50;99.90
3492;DHT22;1760;52.480;13.422;2024-03-23T02:15:36;9.50;99.90
3492;DHT22;1760;52.480;13.422;2024-03-23T02:18:01;9.50;99.90
3492;DHT22;1760;52.480;13.422;2024-03-23T02:20:30;9.50;99.90
3492;DHT22;1760;52.480;13.422;2024-03-23T02:22:57;9.40;99.90
3492;DHT22;1760;52.480;13.422;2024-03-23T02:25:24;9.50;99.90
3492;DHT22;1760;52.480;13.422;2024-03-23T02:27:50;9.50;99.90
3492;DHT22;1760;52.480;13.422;2024-03-23T02:30:18;9.50;99.90
3492;DHT22;1760;52.480;13.422;2024-03-23T02:32:44;9.50;99.90
3492;DHT22;1760;52.480;13.422;2024-03-23T02:35:11;9.50;99.90
3492;DHT22;1760;52.480;13.422;2024-03-23T02:37:37;9.50;99.90
3492;DHT22;1760;52.480;13.422;2024-03-23T02:40:09;9.50;99.90
3492;DHT22;1760;52.480;13.422;2024-03-23T02:42:35;9.40;99.90
3492;DHT22;1760;52.480;13.422;2024-03-23T02:45:02;9.40;99.90
3492;DHT22;1760;52.480;13.422;2024-03-23T02:47:30;9.50;99.90
3492;DHT22;1760;52.480;13.422;2024-03-23T02:49:57;9.50;99.90
3492;DHT22;1760;52.480;13.422;2024-03-23T02:52:23;9.50;99.90
3492;DHT22;1760;52.480;13.422;2024-03-23T02:54:50;9.50;99.90
3492;DHT22;1760;52.480;13.422;2024-03-23T02:57:17;9.50;99.90
3492;DHT22;1760;52.480;13.422;2024-03-23T02:59:44;9.50;99.90
3492;DHT22;1760;52.480;13.422;2024-03-23T03:02:10;9.40;99.90
3492;DHT22;1760;52.480;13.422;2024-03-23T03:04:37;9.40;99.90
3492;DHT22;1760;52.480;13.422;2024-03-23T03:07:03;9.40;99.90
3492;DHT22;1760;52.480;13.422;2024-03-23T03:09:30;9.30;99.90
3492;DHT22;1760;52.480;13.422;2024-03-23T03:11:56;9.30;99.90
3492;DHT22;1760;52.480;13.422;2024-03-23T03:14:24;9.20;99.90
3492;DHT22;1760;52.480;13.422;2024-03-23T03:16:50;9.20;99.90
3492;DHT22;1760;52.480;13.422;2024-03-23T03:19:17;9.20;99.90
3492;DHT22;1760;52.480;13.422;2024-03-23T03:21:45;9.10;99.90
3492;DHT22;1760;52.480;13.422;2024-03-23T03:24:13;9.00;99.90
3492;DHT22;1760;52.480;13.422;2024-03-23T03:26:39;9.00;99.90
3492;DHT22;1760;52.480;13.422;2024-03-23T03:29:06;9.00;99.90
3492;DHT22;1760;52.480;13.422;2024-03-23T03:31:33;9.00;99.90
3492;DHT22;1760;52.480;13.422;2024-03-23T03:34:00;8.90;99.90
3492;DHT22;1760;52.480;13.422;2024-03-23T03:36:26;8.90;99.90
3492;DHT22;1760;52.480;13.422;2024-03-23T03:38:53;8.90;99.90
3492;DHT22;1760;52.480;13.422;2024-03-23T03:41:19;8.90;99.90
3492;DHT22;1760;52.480;13.422;2024-03-23T03:43:46;8.80;99.90
3492;DHT22;1760;52.480;13.422;2024-03-23T03:46:12;8.80;99.90
3492;DHT22;1760;52.480;13.422;2024-03-23T03:48:40;8.80;99.90
3492;DHT22;1760;52.480;13.422;2024-03-23T03:51:08;8.80;99.90
3492;DHT22;1760;52.480;13.422;2024-03-23T03:53:35;8.80;99.90
3492;DHT22;1760;52.480;13.422;2024-03-23T03:56:01;8.70;99.90
3492;DHT22;1760;52.480;13.422;2024-03-23T03:58:28;8.70;99.90
3492;DHT22;1760;52.480;13.422;2024-03-23T04:00:55;8.70;99.90
3492;DHT22;1760;52.480;13.422;2024-03-23T04:03:21;8.60;99.90
3492;DHT22;1760;52.480;13.422;2024-03-23T04:05:51;8.60;99.90
3492;DHT22;1760;52.480;13.422;2024-03-23T04:08:17;8.60;99.90
3492;DHT22;1760;52.480;13.422;2024-03-23T04:10:44;8.60;99.90
3492;DHT22;1760;52.480;13.422;2024-03-23T04:13:11;8.60;99.90
3492;DHT22;1760;52.480;13.422;2024-03-23T04:15:38;8.60;99.90
3492;DHT22;1760;52.480;13.422;2024-03-23T04:18:04;8.60;99.90
3492;DHT22;1760;52.480;13.422;2024-03-23T04:20:31;8.60;99.90
3492;DHT22;1760;52.480;13.422;2024-03-23T04:22:59;8.60;99.90
3492;DHT22;1760;52.480;13.422;2024-03-23T04:25:26;8.60;99.90
3492;DHT22;1760;52.480;13.422;2024-03-23T04:27:52;8.60;99.90
3492;DHT22;1760;52.480;13.422;2024-03-23T04:30:18;8.50;99.90
3492;DHT22;1760;52.480;13.422;2024-03-23T04:32:45;8.40;99.90
3492;DHT22;1760;52.480;13.422;2024-03-23T04:35:11;8.40;99.90
3492;DHT22;1760;52.480;13.422;2024-03-23T04:37:38;8.40;99.90
3492;DHT22;1760;52.480;13.422;2024-03-23T04:40:09;8.30;99.90
3492;DHT22;1760;52.480;13.422;2024-03-23T04:42:37;8.20;99.90
3492;DHT22;1760;52.480;13.422;2024-03-23T04:45:05;8.20;99.90
3492;DHT22;1760;52.480;13.422;2024-03-23T04:47:31;8.10;99.90
3492;DHT22;1760;52.480;13.422;2024-03-23T04:49:58;8.00;99.90
3492;DHT22;1760;52.480;13.422;2024-03-23T04:52:24;8.00;99.90
3492;DHT22;1760;52.480;13.422;2024-03-23T04:54:51;8.00;99.90
3492;DHT22;1760;52.480;13.422;2024-03-23T04:57:19;8.00;99.90
3492;DHT22;1760;52.480;13.422;2024-03-23T04:59:45;8.00;99.90
3492;DHT22;1760;52.480;13.422;2024-03-23T05:02:13;8.00;99.90
3492;DHT22;1760;52.480;13.422;2024-03-23T05:04:39;8.00;99.90
3492;DHT22;1760;52.480;13.422;2024-03-23T05:07:06;8.00;99.90
3492;DHT22;1760;52.480;13.422;2024-03-23T05:09:32;8.00;99.90
3492;DHT22;1760;52.480;13.422;2024-03-23T05:11:59;8.00;99.90
3492;DHT22;1760;52.480;13.422;2024-03-23T05:14:27;7.90;99.90
3492;DHT22;1760;52.480;13.422;2024-03-23T05:16:54;7.90;99.90
3492;DHT22;1760;52.480;13.422;2024-03-23T05:19:20;7.90;99.90
3492;DHT22;1760;52.480;13.422;2024-03-23T05:21:46;7.90;99.90
3492;DHT22;1760;52.480;13.422;2024-03-23T05:24:12;7.90;99.90
3492;DHT22;1760;52.480;13.422;2024-03-23T05:26:39;7.90;99.90
3492;DHT22;1760;52.480;13.422;2024-03-23T05:29:05;7.90;99.90
3492;DHT22;1760;52.480;13.422;2024-03-23T05:31:37;7.90;99.90
3492;DHT22;1760;52.480;13.422;2024-03-23T05:34:03;7.90;99.90
3492;DHT22;1760;52.480;13.422;2024-03-23T05:36:30;7.90;99.90
3492;DHT22;1760;52.480;13.422;2024-03-23T05:38:58;7.90;99.90
3492;DHT22;1760;52.480;13.422;2024-03-23T05:41:24;7.90;99.90
3492;DHT22;1760;52.480;13.422;2024-03-23T05:43:50;7.90;99.90
3492;DHT22;1760;52.480;13.422;2024-03-23T05:46:17;7.90;99.90
3492;DHT22;1760;52.480;13.422;2024-03-23T05:48:45;7.90;99.90
3492;DHT22;1760;52.480;13.422;2024-03-23T05:51:11;8.00;99.90
3492;DHT22;1760;52.480;13.422;2024-03-23T05:53:38;8.00;99.90
3492;DHT22;1760;52.480;13.422;2024-03-23T05:56:05;8.00;99.90
3492;DHT22;1760;52.480;13.422;2024-03-23T05:58:31;8.00;99.90
3492;DHT22;1760;52.480;13.422;2024-03-23T06:00:59;8.00;99.90
3492;DHT22;1760;52.480;13.422;2024-03-23T06:03:26;8.00;99.90
3492;DHT22;1760;52.480;13.422;2024-03-23T06:05:54;8.00;99.90
3492;DHT22;1760;52.480;13.422;2024-03-23T06:08:20;8.10;99.90
3492;DHT22;1760;52.480;13.422;2024-03-23T06:10:47;8.10;99.90
3492;DHT22;1760;52.480;13.422;2024-03-23T06:13:13;8.10;99.90
3492;DHT22;1760;52.480;13.422;2024-03-23T06:15:40;8.20;99.90
3492;DHT22;1760;52.480;13.422;2024-03-23T06:18:06;8.20;99.90
3492;DHT22;1760;52.480;13.422;2024-03-23T06:20:33;8.20;99.90
3492;DHT22;1760;52.480;13.422;2024-03-23T06:23:01;8.20;99.90
3492;DHT22;1760;52.480;13.422;2024-03-23T06:25:29;8.30;99.90
3492;DHT22;1760;52.480;13.422;2024-03-23T06:27:55;8.30;99.90
3492;DHT22;1760;52.480;13.422;2024-03-23T06:30:23;8.30;99.90
3492;DHT22;1760;52.480;13.422;2024-03-23T06:32:49;8.40;99.90
3492;DHT22;1760;52.480;13.422;2024-03-23T06:35:16;8.40;99.90
3492;DHT22;1760;52.480;13.422;2024-03-23T06:37:42;8.40;99.90
3492;DHT22;1760;52.480;13.422;2024-03-23T06:40:10;8.40;99.90
3492;DHT22;1760;52.480;13.422;2024-03-23T06:42:37;8.40;99.90
3492;DHT22;1760;52.480;13.422;2024-03-23T06:45:05;8.50;99.90
3492;DHT22;1760;52.480;13.422;2024-03-23T06:47:31;8.50;99.90
3492;DHT22;1760;52.480;13.422;2024-03-23T06:49:59;8.50;99.90
3492;DHT22;1760;52.480;13.422;2024-03-23T06:52:27;8.50;99.90
3492;DHT22;1760;52.480;13.422;2024-03-23T06:54:54;8.50;99.90
3492;DHT22;1760;52.480;13.422;2024-03-23T06:57:21;8.50;99.90
3492;DHT22;1760;52.480;13.422;2024-03-23T06:59:48;8.50;99.90
3492;DHT22;1760;52.480;13.422;2024-03-23T07:02:14;8.50;99.90
3492;DHT22;1760;52.480;13.422;2024-03-23T07:04:42;8.50;99.90
3492;DHT22;1760;52.480;13.422;2024-03-23T07:07:07;8.50;99.90
3492;DHT22;1760;52.480;13.422;2024-03-23T07:09:34;8.50;99.90
3492;DHT22;1760;52.480;13.422;2024-03-23T07:12:00;8.50;99.90
3492;DHT22;1760;52.480;13.422;2024-03-23T07:14:28;8.50;99.90
3492;DHT22;1760;52.480;13.422;2024-03-23T07:16:54;8.60;99.90
3492;DHT22;1760;52.480;13.422;2024-03-23T07:19:21;8.70;99.90
3492;DHT22;1760;52.480;13.422;2024-03-23T07:21:47;8.70;99.90
3492;DHT22;1760;52.480;13.422;2024-03-23T07:24:14;8.60;99.90
3492;DHT22;1760;52.480;13.422;2024-03-23T07:26:40;8.60;99.90
3492;DHT22;1760;52.480;13.422;2024-03-23T07:29:07;8.60;99.90
3492;DHT22;1760;52.480;13.422;2024-03-23T07:31:34;8.50;99.90
3492;DHT22;1760;52.480;13.422;2024-03-23T07:34:01;8.50;99.90
3492;DHT22;1760;52.480;13.422;2024-03-23T07:36:27;8.50;99.90
3492;DHT22;1760;52.480;13.422;2024-03-23T07:38:54;8.50;99.90
3492;DHT22;1760;52.480;13.422;2024-03-23T07:41:20;8.60;99.90
3492;DHT22;1760;52.480;13.422;2024-03-23T07:43:48;8.60;99.90
3492;DHT22;1760;52.480;13.422;2024-03-23T07:46:15;8.70;99.90
3492;DHT22;1760;52.480;13.422;2024-03-23T07:48:43;8.70;99.90
3492;DHT22;1760;52.480;13.422;2024-03-23T07:51:11;8.70;99.90
3492;DHT22;1760;52.480;13.422;2024-03-23T07:53:38;8.70;99.90
3492;DHT22;1760;52.480;13.422;2024-03-23T07:56:06;8.70;99.90
3492;DHT22;1760;52.480;13.422;2024-03-23T07:58:34;8.70;99.90
3492;DHT22;1760;52.480;13.422;2024-03-23T08:01:04;8.70;99.90
3492;DHT22;1760;52.480;13.422;2024-03-23T08:03:33;8.70;99.90
3492;DHT22;1760;52.480;13.422;2024-03-23T08:06:08;8.60;99.90
3492;DHT22;1760;52.480;13.422;2024-03-23T08:08:35;8.70;99.90
3492;DHT22;1760;52.480;13.422;2024-03-23T08:11:01;8.60;99.90
3492;DHT22;1760;52.480;13.422;2024-03-23T08:13:28;8.60;99.90
3492;DHT22;1760;52.480;13.422;2024-03-23T08:15:57;8.50;99.90
3492;DHT22;1760;52.480;13.422;2024-03-23T08:18:23;8.50;99.90
3492;DHT22;1760;52.480;13.422;2024-03-23T08:20:56;8.50;99.90
3492;DHT22;1760;52.480;13.422;2024-03-23T08:23:24;8.60;99.90
3492;DHT22;1760;52.480;13.422;2024-03-23T08:25:50;8.50;99.90
3492;DHT22;1760;52.480;13.422;2024-03-23T08:28:17;8.50;99.90
3492;DHT22;1760;52.480;13.422;2024-03-23T08:30:43;8.50;99.90
3492;DHT22;1760;52.480;13.422;2024-03-23T08:33:10;8.40;99.90
3492;DHT22;1760;52.480;13.422;2024-03-23T08:35:36;8.30;99.90
3492;DHT22;1760;52.480;13.422;2024-03-23T08:38:03;8.30;99.90
3492;DHT22;1760;52.480;13.422;2024-03-23T08:40:30;8.20;99.90
3492;DHT22;1760;52.480;13.422;2024-03-23T08:42:57;8.20;99.90
3492;DHT22;1760;52.480;13.422;2024-03-23T08:45:24;8.20;99.90
3492;DHT22;1760;52.480;13.422;2024-03-23T08:47:51;8.20;99.90
3492;DHT22;1760;52.480;13.422;2024-03-23T08:50:17;8.10;99.90
3492;DHT22;1760;52.480;13.422;2024-03-23T08:52:44;8.10;99.90
3492;DHT22;1760;52.480;13.422;2024-03-23T08:55:10;8.10;99.90
3492;DHT22;1760;52.480;13.422;2024-03-23T08:57:38;8.00;99.90
3492;DHT22;1760;52.480;13.422;2024-03-23T09:00:05;7.80;99.90
3492;DHT22;1760;52.480;13.422;2024-03-23T09:02:34;7.90;99.90
3492;DHT22;1760;52.480;13.422;2024-03-23T09:05:00;7.80;99.90
3492;DHT22;1760;52.480;13.422;2024-03-23T09:07:30;7.70;99.90
3492;DHT22;1760;52.480;13.422;2024-03-23T09:09:56;7.60;99.90
3492;DHT22;1760;52.480;13.422;2024-03-23T09:12:23;7.50;99.90
3492;DHT22;1760;52.480;13.422;2024-03-23T09:14:50;7.50;99.90
3492;DHT22;1760;52.480;13.422;2024-03-23T09:17:18;7.40;99.90
3492;DHT22;1760;52.480;13.422;2024-03-23T09:19:44;7.30;99.90
3492;DHT22;1760;52.480;13.422;2024-03-23T09:22:11;7.20;99.90
3492;DHT22;1760;52.480;13.422;2024-03-23T09:24:38;7.00;99.90
3492;DHT22;1760;52.480;13.422;2024-03-23T09:27:05;6.90;99.90
3492;DHT22;1760;52.480;13.422;2024-03-23T09:29:31;6.80;99.90
3492;DHT22;1760;52.480;13.422;2024-03-23T09:32:00;6.70;99.90
3492;DHT22;1760;52.480;13.422;2024-03-23T09:34:26;6.70;99.90
3492;DHT22;1760;52.480;13.422;2024-03-23T09:36:53;6.60;99.90
3492;DHT22;1760;52.480;13.422;2024-03-23T09:39:19;6.60;99.90
3492;DHT22;1760;52.480;13.422;2024-03-23T09:41:46;6.60;99.90
3492;DHT22;1760;52.480;13.422;2024-03-23T09:44:12;6.50;99.90
3492;DHT22;1760;52.480;13.422;2024-03-23T09:46:39;6.50;99.90
3492;DHT22;1760;52.480;13.422;2024-03-23T09:49:07;6.50;99.90
3492;DHT22;1760;52.480;13.422;2024-03-23T09:51:36;6.60;99.90
3492;DHT22;1760;52.480;13.422;2024-03-23T09:54:02;6.60;99.90
3492;DHT22;1760;52.480;13.422;2024-03-23T09:56:29;6.50;99.90
3492;DHT22;1760;52.480;13.422;2024-03-23T09:59:00;6.40;99.90
3492;DHT22;1760;52.480;13.422;2024-03-23T10:01:29;6.30;99.90
3492;DHT22;1760;52.480;13.422;2024-03-23T10:03:58;6.30;99.90
3492;DHT22;1760;52.480;13.422;2024-03-23T10:06:26;6.30;99.90
3492;DHT22;1760;52.480;13.422;2024-03-23T10:08:53;6.20;99.90
3492;DHT22;1760;52.480;13.422;2024-03-23T10:11:20;6.20;99.90
3492;DHT22;1760;52.480;13.422;2024-03-23T10:13:47;6.20;99.90
3492;DHT22;1760;52.480;13.422;2024-03-23T10:16:22;6.20;99.90
3492;DHT22;1760;52.480;13.422;2024-03-23T10:18:48;6.30;99.90
3492;DHT22;1760;52.480;13.422;2024-03-23T10:21:18;6.30;99.90
3492;DHT22;1760;52.480;13.422;2024-03-23T10:23:46;6.30;99.90
3492;DHT22;1760;52.480;13.422;2024-03-23T10:26:17;6.40;99.90
3492;DHT22;1760;52.480;13.422;2024-03-23T10:28:57;6.40;99.90
3492;DHT22;1760;52.480;13.422;2024-03-23T10:31:26;6.30;99.90
3492;DHT22;1760;52.480;13.422;2024-03-23T10:33:52;6.40;99.90
3492;DHT22;1760;52.480;13.422;2024-03-23T10:36:20;6.40;99.90
3492;DHT22;1760;52.480;13.422;2024-03-23T10:38:50;6.50;99.90
3492;DHT22;1760;52.480;13.422;2024-03-23T10:41:17;6.40;99.90
3492;DHT22;1760;52.480;13.422;2024-03-23T10:43:45;6.30;99.90
3492;DHT22;1760;52.480;13.422;2024-03-23T10:46:12;6.20;99.90
3492;DHT22;1760;52.480;13.422;2024-03-23T10:48:38;6.20;99.90
3492;DHT22;1760;52.480;13.422;2024-03-23T10:51:07;6.30;99.90
3492;DHT22;1760;52.480;13.422;2024-03-23T10:53:34;6.30;99.90
3492;DHT22;1760;52.480;13.422;2024-03-23T10:56:04;6.30;99.90
3492;DHT22;1760;52.480;13.422;2024-03-23T10:58:33;6.30;99.90
3492;DHT22;1760;52.480;13.422;2024-03-23T11:01:03;6.30;99.90
3492;DHT22;1760;52.480;13.422;2024-03-23T11:03:33;6.40;99.90
3492;DHT22;1760;52.480;13.422;2024-03-23T11:06:02;6.40;99.90
3492;DHT22;1760;52.480;13.422;2024-03-23T11:08:33;6.40;99.90
3492;DHT22;1760;52.480;13.422;2024-03-23T11:11:26;6.30;99.90
3492;DHT22;1760;52.480;13.422;2024-03-23T11:13:53;6.40;99.90
3492;DHT22;1760;52.480;13.422;2024-03-23T11:16:23;6.40;99.90
3492;DHT22;1760;52.480;13.422;2024-03-23T11:18:49;6.40;99.90
3492;DHT22;1760;52.480;13.422;2024-03-23T11:21:51;6.50;99.90
3492;DHT22;1760;52.480;13.422;2024-03-23T11:24:17;6.60;99.90
3492;DHT22;1760;52.480;13.422;2024-03-23T11:26:46;6.60;99.90
3492;DHT22;1760;52.480;13.422;2024-03-23T11:29:13;6.50;99.90
3492;DHT22;1760;52.480;13.422;2024-03-23T11:31:46;6.50;99.90
3492;DHT22;1760;52.480;13.422;2024-03-23T11:34:12;6.70;99.90
3492;DHT22;1760;52.480;13.422;2024-03-23T11:36:39;6.70;99.90
3492;DHT22;1760;52.480;13.422;2024-03-23T11:39:12;6.80;99.90
3492;DHT22;1760;52.480;13.422;2024-03-23T11:41:49;6.90;99.90
3492;DHT22;1760;52.480;13.422;2024-03-23T11:44:16;7.00;99.90
3492;DHT22;1760;52.480;13.422;2024-03-23T11:46:43;7.10;99.90
3492;DHT22;1760;52.480;13.422;2024-03-23T11:49:20;7.30;99.90
3492;DHT22;1760;52.480;13.422;2024-03-23T11:51:48;7.30;99.90
3492;DHT22;1760;52.480;13.422;2024-03-23T11:54:15;7.40;99.90
3492;DHT22;1760;52.480;13.422;2024-03-23T11:56:56;7.50;99.90
3492;DHT22;1760;52.480;13.422;2024-03-23T11:59:32;7.50;99.90
3492;DHT22;1760;52.480;13.422;2024-03-23T12:01:59;7.60;99.90
3492;DHT22;1760;52.480;13.422;2024-03-23T12:04:26;7.70;99.90
3492;DHT22;1760;52.480;13.422;2024-03-23T12:07:09;7.70;99.90
3492;DHT22;1760;52.480;13.422;2024-03-23T12:09:35;7.80;99.90
3492;DHT22;1760;52.480;13.422;2024-03-23T12:12:08;7.80;99.90
3492;DHT22;1760;52.480;13.422;2024-03-23T12:14:34;7.80;99.90
3492;DHT22;1760;52.480;13.422;2024-03-23T12:17:11;7.70;99.90
3492;DHT22;1760;52.480;13.422;2024-03-23T12:19:37;7.60;99.90
3492;DHT22;1760;52.480;13.422;2024-03-23T12:22:04;7.50;99.90
3492;DHT22;1760;52.480;13.422;2024-03-23T12:24:31;7.50;99.90
3492;DHT22;1760;52.480;13.422;2024-03-23T12:27:00;7.40;99.90
3492;DHT22;1760;52.480;13.422;2024-03-23T12:29:29;7.40;99.90
3492;DHT22;1760;52.480;13.422;2024-03-23T12:31:58;7.40;99.90
3492;DHT22;1760;52.480;13.422;2024-03-23T12:34:24;7.40;99.90
3492;DHT22;1760;52.480;13.422;2024-03-23T12:36:51;7.50;99.90
3492;DHT22;1760;52.480;13.422;2024-03-23T12:39:17;7.50;99.90
3492;DHT22;1760;52.480;13.422;2024-03-23T12:41:45;7.50;99.90
3492;DHT22;1760;52.480;13.422;2024-03-23T12:44:11;7.70;99.90
3492;DHT22;1760;52.480;13.422;2024-03-23T12:46:40;7.70;99.90
3492;DHT22;1760;52.480;13.422;2024-03-23T12:49:06;7.80;99.90
3492;DHT22;1760;52.480;13.422;2024-03-23T12:51:33;7.80;99.90
3492;DHT22;1760;52.480;13.422;2024-03-23T12:53:59;7.80;99.90
3492;DHT22;1760;52.480;13.422;2024-03-23T12:56:27;7.60;99.90
3492;DHT22;1760;52.480;13.422;2024-03-23T12:58:53;7.50;99.90
3492;DHT22;1760;52.480;13.422;2024-03-23T13:01:22;7.50;99.90
3492;DHT22;1760;52.480;13.422;2024-03-23T13:03:50;7.40;99.90
3492;DHT22;1760;52.480;13.422;2024-03-23T13:06:17;7.40;99.90
3492;DHT22;1760;52.480;13.422;2024-03-23T13:08:44;7.50;99.90
3492;DHT22;1760;52.480;13.422;2024-03-23T13:11:11;7.50;99.90
3492;DHT22;1760;52.480;13.422;2024-03-23T13:13:37;7.60;99.90
3492;DHT22;1760;52.480;13.422;2024-03-23T13:16:05;7.80;99.90
3492;DHT22;1760;52.480;13.422;2024-03-23T13:18:31;7.90;99.90
3492;DHT22;1760;52.480;13.422;2024-03-23T13:21:00;8.00;99.90
3492;DHT22;1760;52.480;13.422;2024-03-23T13:23:26;8.20;99.90
3492;DHT22;1760;52.480;13.422;2024-03-23T13:25:54;8.30;99.90
3492;DHT22;1760;52.480;13.422;2024-03-23T13:28:20;8.40;99.90
3492;DHT22;1760;52.480;13.422;2024-03-23T13:30:51;8.60;99.90
3492;DHT22;1760;52.480;13.422;2024-03-23T13:33:17;8.90;99.90
3492;DHT22;1760;52.480;13.422;2024-03-23T13:35:49;9.10;99.90
3492;DHT22;1760;52.480;13.422;2024-03-23T13:38:17;9.40;99.90
3492;DHT22;1760;52.480;13.422;2024-03-23T13:40:54;9.60;99.90
3492;DHT22;1760;52.480;13.422;2024-03-23T13:43:20;9.70;99.90
3492;DHT22;1760;52.480;13.422;2024-03-23T13:45:48;9.70;99.90
3492;DHT22;1760;52.480;13.422;2024-03-23T13:48:15;9.80;99.90
3492;DHT22;1760;52.480;13.422;2024-03-23T13:50:42;9.80;99.90
3492;DHT22;1760;52.480;13.422;2024-03-23T13:53:08;10.00;99.90
3492;DHT22;1760;52.480;13.422;2024-03-23T13:55:36;10.10;99.90
3492;DHT22;1760;52.480;13.422;2024-03-23T13:58:02;10.10;99.90
3492;DHT22;1760;52.480;13.422;2024-03-23T14:00:30;10.00;99.90
3492;DHT22;1760;52.480;13.422;2024-03-23T14:02:58;9.90;99.90
3492;DHT22;1760;52.480;13.422;2024-03-23T14:05:24;9.80;99.90
3492;DHT22;1760;52.480;13.422;2024-03-23T14:07:50;9.90;99.90
3492;DHT22;1760;52.480;13.422;2024-03-23T14:10:17;9.80;99.90
3492;DHT22;1760;52.480;13.422;2024-03-23T14:12:44;9.70;99.90
3492;DHT22;1760;52.480;13.422;2024-03-23T14:15:11;9.60;99.90
3492;DHT22;1760;52.480;13.422;2024-03-23T14:17:37;9.60;99.90
3492;DHT22;1760;52.480;13.422;2024-03-23T14:20:06;9.60;99.90
3492;DHT22;1760;52.480;13.422;2024-03-23T14:22:34;9.70;99.90
3492;DHT22;1760;52.480;13.422;2024-03-23T14:25:01;9.50;99.90
3492;DHT22;1760;52.480;13.422;2024-03-23T14:27:27;9.50;99.90
3492;DHT22;1760;52.480;13.422;2024-03-23T14:29:55;9.30;99.90
3492;DHT22;1760;52.480;13.422;2024-03-23T14:32:22;9.20;99.90
3492;DHT22;1760;52.480;13.422;2024-03-23T14:34:49;9.20;99.90
3492;DHT22;1760;52.480;13.422;2024-03-23T14:37:15;9.30;99.90
3492;DHT22;1760;52.480;13.422;2024-03-23T14:39:42;9.30;99.90
3492;DHT22;1760;52.480;13.422;2024-03-23T14:42:10;9.30;99.90
3492;DHT22;1760;52.480;13.422;2024-03-23T14:44:36;9.30;99.90
3492;DHT22;1760;52.480;13.422;2024-03-23T14:47:04;9.30;99.90
3492;DHT22;1760;52.480;13.422;2024-03-23T14:49:31;9.20;99.90
3492;DHT22;1760;52.480;13.422;2024-03-23T14:51:57;8.90;99.90
3492;DHT22;1760;52.480;13.422;2024-03-23T14:54:24;8.80;99.90
3492;DHT22;1760;52.480;13.422;2024-03-23T14:56:50;8.70;99.90
3492;DHT22;1760;52.480;13.422;2024-03-23T14:59:16;8.60;99.90
3492;DHT22;1760;52.480;13.422;2024-03-23T15:01:42;8.40;99.90
3492;DHT22;1760;52.480;13.422;2024-03-23T15:04:11;8.20;99.90
3492;DHT22;1760;52.480;13.422;2024-03-23T15:06:37;8.10;99.90
3492;DHT22;1760;52.480;13.422;2024-03-23T15:09:03;7.90;99.90
3492;DHT22;1760;52.480;13.422;2024-03-23T15:11:33;7.80;99.90
3492;DHT22;1760;52.480;13.422;2024-03-23T15:14:00;7.70;99.90
3492;DHT22;1760;52.480;13.422;2024-03-23T15:16:25;7.60;99.90
3492;DHT22;1760;52.480;13.422;2024-03-23T15:18:52;7.50;99.90
3492;DHT22;1760;52.480;13.422;2024-03-23T15:21:20;7.50;99.90
3492;DHT22;1760;52.480;13.422;2024-03-23T15:23:47;7.60;99.90
3492;DHT22;1760;52.480;13.422;2024-03-23T15:26:13;7.80;99.90
3492;DHT22;1760;52.480;13.422;2024-03-23T15:28:41;7.90;99.90
3492;DHT22;1760;52.480;13.422;2024-03-23T15:31:18;8.00;99.90
3492;DHT22;1760;52.480;13.422;2024-03-23T15:33:45;8.10;99.90
3492;DHT22;1760;52.480;13.422;2024-03-23T15:36:11;8.00;99.90
3492;DHT22;1760;52.480;13.422;2024-03-23T15:38:40;8.00;99.90
3492;DHT22;1760;52.480;13.422;2024-03-23T15:41:06;8.00;99.90
3492;DHT22;1760;52.480;13.422;2024-03-23T15:43:33;8.00;99.90
3492;DHT22;1760;52.480;13.422;2024-03-23T15:46:00;8.00;99.90
3492;DHT22;1760;52.480;13.422;2024-03-23T15:48:27;8.00;99.90
3492;DHT22;1760;52.480;13.422;2024-03-23T15:50:53;8.10;99.90
3492;DHT22;1760;52.480;13.422;2024-03-23T15:53:20;8.20;99.90
3492;DHT22;1760;52.480;13.422;2024-03-23T15:55:54;8.20;99.90
3492;DHT22;1760;52.480;13.422;2024-03-23T15:58:21;8.20;99.90
3492;DHT22;1760;52.480;13.422;2024-03-23T16:00:54;8.20;99.90
3492;DHT22;1760;52.480;13.422;2024-03-23T16:03:21;8.30;99.90
3492;DHT22;1760;52.480;13.422;2024-03-23T16:05:50;8.20;99.90
3492;DHT22;1760;52.480;13.422;2024-03-23T16:08:17;8.20;99.90
3492;DHT22;1760;52.480;13.422;2024-03-23T16:10:43;8.20;99.90
3492;DHT22;1760;52.480;13.422;2024-03-23T16:13:11;8.20;99.90
3492;DHT22;1760;52.480;13.422;2024-03-23T16:15:37;8.10;99.90
3492;DHT22;1760;52.480;13.422;2024-03-23T16:18:05;8.10;99.90
3492;DHT22;1760;52.480;13.422;2024-03-23T16:20:31;8.00;99.90
3492;DHT22;1760;52.480;13.422;2024-03-23T16:22:59;8.00;99.90
3492;DHT22;1760;52.480;13.422;2024-03-23T16:25:25;8.00;99.90
3492;DHT22;1760;52.480;13.422;2024-03-23T16:27:52;8.00;99.90
3492;DHT22;1760;52.480;13.422;2024-03-23T16:30:19;8.00;99.90
3492;DHT22;1760;52.480;13.422;2024-03-23T16:32:46;8.00;99.90
3492;DHT22;1760;52.480;13.422;2024-03-23T16:35:13;7.90;99.90
3492;DHT22;1760;52.480;13.422;2024-03-23T16:37:40;7.90;99.90
3492;DHT22;1760;52.480;13.422;2024-03-23T16:40:08;7.90;99.90
3492;DHT22;1760;52.480;13.422;2024-03-23T16:42:35;7.80;99.90
3492;DHT22;1760;52.480;13.422;2024-03-23T16:45:02;7.80;99.90
3492;DHT22;1760;52.480;13.422;2024-03-23T16:47:30;7.80;99.90
3492;DHT22;1760;52.480;13.422;2024-03-23T16:49:59;7.80;99.90
3492;DHT22;1760;52.480;13.422;2024-03-23T16:52:26;7.80;99.90
3492;DHT22;1760;52.480;13.422;2024-03-23T16:54:52;7.80;99.90
3492;DHT22;1760;52.480;13.422;2024-03-23T16:57:18;7.80;99.90